Time;durP1;ratioP1;P1;durP2;ratioP2;P2;SDS_P1;SDS_P2;PMS_P1;PMS_P2;Temp;Humidity;BMP_temperature;BMP_pressure;BME280_temperature;BME280_humidity;BME280_pressure;Samples;Min_cycle;Max_cycle;Signal;HPM_P1;HPM_P2
2022/07/07 00:01:20;;;;;;;2.25;1.52;;;;;;;;;;4992280;28;20137;-41
2022/07/07 00:03:45;;;;;;;1.98;1.20;;;;;;;;;;4991169;28;20413;-41
2022/07/07 00:06:11;;;;;;;1.42;1.33;;;;;;;;;;4992111;28;20104;-41
2022/07/07 00:08:36;;;;;;;1.85;1.10;;;;;;;;;;4992431;28;20014;-41
2022/07/07 00:11:02;;;;;;;3.08;1.67;;;;;;;;;;4992059;28;20038;-40
2022/07/07 00:13:27;;;;;;;2.15;1.30;;;;;;;;;;4991794;28;20022;-43
2022/07/07 00:15:52;;;;;;;3.35;1.63;;;;;;;;;;4992033;28;20392;-40
2022/07/07 00:18:18;;;;;;;1.23;1.13;;;;;;;;;;4992162;28;20018;-41
2022/07/07 00:20:43;;;;;;;1.85;1.65;;;;;;;;;;4992154;28;20030;-41
2022/07/07 00:23:09;;;;;;;2.80;1.33;;;;;;;;;;4992074;28;20368;-41
2022/07/07 00:25:34;;;;;;;1.33;1.23;;;;;;;;;;4992001;28;20038;-41
2022/07/07 00:27:59;;;;;;;1.55;1.05;;;;;;;;;;4992091;28;20023;-40
2022/07/07 00:30:25;;;;;;;1.42;1.33;;;;;;;;;;4992223;28;20034;-41
2022/07/07 00:32:50;;;;;;;2.88;1.48;;;;;;;;;;4991811;28;20056;-41
2022/07/07 00:35:16;;;;;;;1.30;1.20;;;;;;;;;;4991810;28;20034;-41
2022/07/07 00:37:41;;;;;;;5.60;1.63;;;;;;;;;;4991858;28;20419;-41
2022/07/07 00:40:07;;;;;;;2.22;1.73;;;;;;;;;;4991897;28;20564;-41
2022/07/07 00:42:33;;;;;;;2.00;1.30;;;;;;;;;;4994118;28;20030;-41
2022/07/07 00:44:59;;;;;;;4.65;1.50;;;;;;;;;;4995718;28;20069;-41
2022/07/07 00:47:24;;;;;;;2.38;1.38;;;;;;;;;;4995718;28;20120;-41
2022/07/07 00:49:51;;;;;;;3.78;1.50;;;;;;;;;;4995527;28;20045;-41
2022/07/07 00:52:17;;;;;;;5.63;1.65;;;;;;;;;;4995539;28;20022;-41
2022/07/07 00:54:56;;;;;;;4.15;1.77;;;;;;;;;;4995350;28;20121;-41
2022/07/07 00:57:22;;;;;;;4.20;1.67;;;;;;;;;;4995785;28;20046;-41
2022/07/07 00:59:48;;;;;;;2.95;1.30;;;;;;;;;;4995444;28;20082;-41
2022/07/07 01:02:13;;;;;;;1.73;1.40;;;;;;;;;;4995300;28;20439;-41
2022/07/07 01:04:39;;;;;;;6.25;1.85;;;;;;;;;;4995728;28;20026;-41
2022/07/07 01:07:04;;;;;;;7.28;2.97;;;;;;;;;;4995294;28;20496;-41
2022/07/07 01:09:29;;;;;;;9.20;2.08;;;;;;;;;;4977745;28;20030;-41
2022/07/07 01:11:56;;;;;;;2.58;1.83;;;;;;;;;;4995195;28;20066;-41
2022/07/07 01:14:22;;;;;;;4.95;2.33;;;;;;;;;;4995206;28;20431;-40
2022/07/07 01:16:48;;;;;;;6.32;2.00;;;;;;;;;;4977526;28;20042;-41
2022/07/07 01:19:13;;;;;;;4.97;1.88;;;;;;;;;;4995395;28;20105;-40
2022/07/07 01:21:52;;;;;;;5.05;1.50;;;;;;;;;;4995346;28;20461;-41
2022/07/07 01:24:17;;;;;;;1.67;1.55;;;;;;;;;;4995283;28;20027;-41
2022/07/07 01:26:43;;;;;;;2.70;1.67;;;;;;;;;;4994991;28;20045;-41
2022/07/07 01:29:09;;;;;;;2.92;1.55;;;;;;;;;;4995302;28;20027;-41
2022/07/07 01:31:34;;;;;;;3.00;1.70;;;;;;;;;;4994782;28;20097;-41
2022/07/07 01:34:00;;;;;;;2.00;1.50;;;;;;;;;;4993508;28;20038;-40
2022/07/07 01:36:25;;;;;;;2.63;2.17;;;;;;;;;;4994750;28;20041;-42
2022/07/07 01:38:51;;;;;;;4.07;1.55;;;;;;;;;;4993415;28;20431;-41
2022/07/07 01:41:16;;;;;;;3.35;1.60;;;;;;;;;;4994804;28;20073;-42
2022/07/07 01:43:42;;;;;;;5.05;1.38;;;;;;;;;;4994780;28;20081;-40
2022/07/07 01:46:07;;;;;;;1.80;1.48;;;;;;;;;;4994765;28;20026;-41
2022/07/07 01:48:32;;;;;;;1.27;1.02;;;;;;;;;;4994701;28;20022;-41
2022/07/07 01:50:58;;;;;;;3.13;1.70;;;;;;;;;;4994710;28;20026;-40
2022/07/07 01:53:24;;;;;;;1.35;1.13;;;;;;;;;;4994080;28;20495;-41
2022/07/07 01:55:49;;;;;;;1.48;1.33;;;;;;;;;;4994614;28;20103;-41
2022/07/07 01:58:15;;;;;;;1.67;1.50;;;;;;;;;;4994504;28;20426;-41
2022/07/07 02:00:40;;;;;;;1.95;1.45;;;;;;;;;;4994656;28;20029;-41
2022/07/07 02:03:05;;;;;;;1.55;1.35;;;;;;;;;;4977184;28;20381;-41
2022/07/07 02:05:31;;;;;;;2.60;1.60;;;;;;;;;;4994553;28;20022;-41
2022/07/07 02:07:56;;;;;;;2.67;1.35;;;;;;;;;;4994143;28;20057;-40
2022/07/07 02:13:06;;;;;;;2.42;1.35;;;;;;;;;;4994009;28;20038;-41
2022/07/07 02:15:32;;;;;;;3.42;1.70;;;;;;;;;;4993932;28;20042;-41
2022/07/07 02:17:58;;;;;;;6.60;2.20;;;;;;;;;;4994038;28;20023;-41
2022/07/07 02:20:24;;;;;;;3.33;1.45;;;;;;;;;;4994235;28;20045;-40
2022/07/07 02:22:49;;;;;;;1.40;1.30;;;;;;;;;;4993745;28;20465;-41
2022/07/07 02:25:15;;;;;;;3.58;1.70;;;;;;;;;;4993970;28;20065;-41
2022/07/07 02:27:40;;;;;;;2.13;1.92;;;;;;;;;;4993856;28;20037;-41
2022/07/07 02:30:06;;;;;;;1.77;1.55;;;;;;;;;;4993775;28;20492;-40
2022/07/07 02:32:32;;;;;;;3.78;1.67;;;;;;;;;;4993970;28;20048;-41
2022/07/07 02:34:58;;;;;;;2.85;1.73;;;;;;;;;;4993832;28;20113;-41
2022/07/07 02:37:27;;;;;;;1.67;1.23;;;;;;;;;;4993732;28;20493;-41
2022/07/07 02:39:53;;;;;;;3.45;1.45;;;;;;;;;;4993622;28;20018;-40
2022/07/07 02:42:18;;;;;;;2.03;1.35;;;;;;;;;;4993539;28;20161;-41
2022/07/07 02:44:43;;;;;;;2.72;1.48;;;;;;;;;;4993462;28;20022;-40
2022/07/07 02:47:09;;;;;;;2.78;1.90;;;;;;;;;;4993499;28;20038;-41
2022/07/07 02:49:34;;;;;;;4.05;1.70;;;;;;;;;;4993466;28;20026;-41
2022/07/07 02:52:00;;;;;;;1.55;1.45;;;;;;;;;;4993303;28;20045;-40
2022/07/07 02:54:25;;;;;;;1.88;1.75;;;;;;;;;;4993655;28;20037;-40
2022/07/07 02:56:50;;;;;;;2.25;1.70;;;;;;;;;;4993086;28;20497;-41
2022/07/07 02:59:16;;;;;;;2.90;1.67;;;;;;;;;;4993313;28;20050;-41
2022/07/07 03:01:41;;;;;;;3.30;1.48;;;;;;;;;;4993467;28;20568;-41
2022/07/07 03:04:06;;;;;;;2.15;1.73;;;;;;;;;;4992222;28;20340;-41
2022/07/07 03:06:32;;;;;;;2.13;1.42;;;;;;;;;;4993392;28;20034;-41
2022/07/07 03:08:57;;;;;;;1.50;1.40;;;;;;;;;;4993113;28;20380;-41
2022/07/07 03:11:23;;;;;;;4.05;1.65;;;;;;;;;;4992961;28;20057;-41
2022/07/07 03:13:48;;;;;;;5.57;2.10;;;;;;;;;;4992754;28;20535;-40
2022/07/07 03:16:13;;;;;;;2.15;1.60;;;;;;;;;;4993202;28;20042;-41
2022/07/07 03:18:39;;;;;;;3.95;1.52;;;;;;;;;;4992815;28;20029;-41
2022/07/07 03:21:04;;;;;;;3.42;1.60;;;;;;;;;;4992793;28;20041;-41
2022/07/07 03:23:29;;;;;;;1.98;1.70;;;;;;;;;;4992856;28;20030;-41
2022/07/07 03:25:55;;;;;;;2.75;1.60;;;;;;;;;;4992882;28;20038;-41
2022/07/07 03:28:20;;;;;;;1.65;1.45;;;;;;;;;;4993048;28;20022;-40
2022/07/07 03:30:46;;;;;;;2.55;1.70;;;;;;;;;;4992705;28;20061;-40
2022/07/07 03:33:11;;;;;;;1.60;1.30;;;;;;;;;;4975151;28;20045;-41
2022/07/07 03:35:38;;;;;;;1.38;1.25;;;;;;;;;;4992922;28;20038;-41
2022/07/07 03:38:04;;;;;;;1.52;1.42;;;;;;;;;;4992508;28;20026;-41
2022/07/07 03:40:29;;;;;;;1.85;1.50;;;;;;;;;;4992493;28;20040;-41
2022/07/07 03:42:54;;;;;;;4.85;1.38;;;;;;;;;;4992670;28;20030;-41
2022/07/07 03:45:20;;;;;;;2.65;1.55;;;;;;;;;;4992761;28;20042;-40
2022/07/07 03:47:45;;;;;;;1.45;1.33;;;;;;;;;;4992305;28;20030;-41
2022/07/07 03:50:11;;;;;;;2.40;1.27;;;;;;;;;;4992402;28;20062;-41
2022/07/07 03:52:37;;;;;;;2.47;1.52;;;;;;;;;;4974878;28;20026;-41
2022/07/07 03:55:02;;;;;;;2.33;1.48;;;;;;;;;;4992131;28;20539;-41
2022/07/07 03:57:28;;;;;;;2.55;1.55;;;;;;;;;;4992631;28;20022;-41
2022/07/07 03:59:53;;;;;;;2.28;1.60;;;;;;;;;;4992416;28;20041;-41
2022/07/07 04:02:18;;;;;;;6.65;1.92;;;;;;;;;;4992273;28;20031;-40
2022/07/07 04:04:44;;;;;;;2.90;1.90;;;;;;;;;;4992497;28;20023;-41
2022/07/07 04:07:09;;;;;;;2.15;1.20;;;;;;;;;;4992351;28;20600;-41
2022/07/07 04:09:34;;;;;;;1.65;1.55;;;;;;;;;;4992098;28;20054;-41
2022/07/07 04:12:00;;;;;;;1.80;1.42;;;;;;;;;;4992063;28;20034;-41
2022/07/07 04:14:25;;;;;;;1.52;1.42;;;;;;;;;;4991849;28;20416;-41
2022/07/07 04:16:51;;;;;;;2.17;2.00;;;;;;;;;;4991767;28;20042;-41
2022/07/07 04:19:16;;;;;;;4.55;1.60;;;;;;;;;;4992351;28;20054;-42
2022/07/07 04:21:41;;;;;;;2.00;1.90;;;;;;;;;;4991927;28;20019;-41
2022/07/07 04:24:07;;;;;;;2.15;1.48;;;;;;;;;;4992238;28;20114;-41
2022/07/07 04:26:32;;;;;;;1.85;1.45;;;;;;;;;;4958496;28;20108;-40
2022/07/07 04:28:58;;;;;;;1.40;1.30;;;;;;;;;;4991885;28;20026;-41
2022/07/07 04:31:23;;;;;;;1.73;1.33;;;;;;;;;;4991955;28;20022;-41
2022/07/07 04:33:49;;;;;;;3.90;1.30;;;;;;;;;;4991874;28;20058;-40
2022/07/07 04:36:14;;;;;;;5.20;1.48;;;;;;;;;;4992065;28;20117;-41
2022/07/07 04:38:40;;;;;;;1.38;1.27;;;;;;;;;;4992162;28;20034;-41
2022/07/07 04:41:05;;;;;;;1.77;1.50;;;;;;;;;;4991753;28;20520;-40
2022/07/07 04:43:31;;;;;;;3.53;1.40;;;;;;;;;;4991812;28;20034;-41
2022/07/07 04:45:56;;;;;;;3.40;1.35;;;;;;;;;;4992050;28;20069;-40
2022/07/07 04:48:21;;;;;;;1.27;1.17;;;;;;;;;;4991813;28;20484;-41
2022/07/07 04:50:47;;;;;;;2.05;1.25;;;;;;;;;;4991589;28;20050;-41
2022/07/07 04:53:12;;;;;;;4.78;1.27;;;;;;;;;;4991973;28;20105;-41
2022/07/07 04:55:37;;;;;;;5.35;1.85;;;;;;;;;;4991681;28;20103;-40
2022/07/07 04:58:03;;;;;;;2.45;1.42;;;;;;;;;;4991828;28;20050;-41
2022/07/07 05:00:28;;;;;;;1.58;1.23;;;;;;;;;;4991705;28;20030;-42
2022/07/07 05:02:54;;;;;;;2.08;1.38;;;;;;;;;;4991838;28;20038;-40
2022/07/07 05:05:19;;;;;;;1.92;1.65;;;;;;;;;;4991635;28;20617;-41
2022/07/07 05:07:45;;;;;;;1.17;1.10;;;;;;;;;;4991614;28;20034;-41
2022/07/07 05:10:10;;;;;;;1.88;1.20;;;;;;;;;;4991605;28;20018;-41
2022/07/07 05:12:36;;;;;;;2.28;1.27;;;;;;;;;;4991744;28;20121;-41
2022/07/07 05:15:01;;;;;;;2.88;2.17;;;;;;;;;;4991273;28;20051;-40
2022/07/07 05:17:27;;;;;;;1.30;1.20;;;;;;;;;;4991828;28;20066;-40
2022/07/07 05:19:52;;;;;;;1.42;1.33;;;;;;;;;;4991717;28;20113;-40
2022/07/07 05:22:18;;;;;;;1.23;1.13;;;;;;;;;;4991417;28;20030;-40
2022/07/07 05:24:44;;;;;;;1.42;1.33;;;;;;;;;;4991457;28;20026;-41
2022/07/07 05:27:09;;;;;;;1.23;1.13;;;;;;;;;;4991725;28;20113;-40
2022/07/07 05:29:35;;;;;;;1.30;1.15;;;;;;;;;;4995051;28;20028;-41
2022/07/07 05:32:01;;;;;;;3.38;1.70;;;;;;;;;;4994855;28;20138;-40
2022/07/07 05:34:27;;;;;;;1.63;1.52;;;;;;;;;;4994927;28;20101;-40
2022/07/07 05:36:52;;;;;;;1.60;1.17;;;;;;;;;;4994682;28;20094;-40
2022/07/07 05:39:18;;;;;;;3.38;1.45;;;;;;;;;;4994974;28;20030;-40
2022/07/07 05:41:43;;;;;;;1.30;1.20;;;;;;;;;;4995012;28;20384;-41
2022/07/07 05:44:09;;;;;;;1.48;1.27;;;;;;;;;;4994688;28;20024;-40
2022/07/07 05:46:34;;;;;;;1.88;1.35;;;;;;;;;;4994988;28;20088;-40
2022/07/07 05:49:00;;;;;;;1.65;1.10;;;;;;;;;;4994558;28;20380;-40
2022/07/07 05:51:26;;;;;;;2.10;1.55;;;;;;;;;;4994595;28;20031;-40
2022/07/07 05:53:51;;;;;;;1.60;1.15;;;;;;;;;;4994340;28;20022;-41
2022/07/07 05:56:17;;;;;;;2.60;1.45;;;;;;;;;;4994455;28;20046;-40
2022/07/07 05:58:43;;;;;;;5.10;1.30;;;;;;;;;;4977040;28;20029;-40
2022/07/07 06:01:09;;;;;;;1.15;1.05;;;;;;;;;;4993835;28;20038;-39
2022/07/07 06:03:34;;;;;;;2.55;1.38;;;;;;;;;;4994570;28;20018;-39
2022/07/07 06:06:00;;;;;;;1.42;1.33;;;;;;;;;;4994184;28;20621;-39
2022/07/07 06:08:28;;;;;;;1.30;1.20;;;;;;;;;;4994165;28;20042;-40
2022/07/07 06:10:53;;;;;;;1.63;1.52;;;;;;;;;;4994144;28;20042;-40
2022/07/07 06:13:19;;;;;;;1.88;1.25;;;;;;;;;;4994494;28;20064;-39
2022/07/07 06:15:44;;;;;;;1.38;0.95;;;;;;;;;;4973236;28;20043;-40
2022/07/07 06:18:10;;;;;;;1.40;1.30;;;;;;;;;;4974946;28;20484;-40
2022/07/07 06:20:36;;;;;;;1.50;1.40;;;;;;;;;;4974617;28;20389;-41
2022/07/07 06:23:01;;;;;;;1.05;0.95;;;;;;;;;;4974552;28;20018;-40
2022/07/07 06:25:27;;;;;;;2.35;1.17;;;;;;;;;;4974580;28;20046;-41
2022/07/07 06:27:52;;;;;;;1.90;1.30;;;;;;;;;;4974460;28;20485;-41
2022/07/07 06:30:18;;;;;;;1.30;1.20;;;;;;;;;;4974436;28;20393;-40
2022/07/07 06:32:44;;;;;;;1.17;1.08;;;;;;;;;;4974674;28;20019;-40
2022/07/07 06:35:10;;;;;;;1.10;1.00;;;;;;;;;;4974553;28;20027;-40
2022/07/07 06:37:35;;;;;;;1.23;1.13;;;;;;;;;;4974357;28;20599;-41
2022/07/07 06:40:01;;;;;;;1.65;1.10;;;;;;;;;;4974175;28;20485;-41
2022/07/07 06:42:26;;;;;;;3.03;1.20;;;;;;;;;;4974254;28;20026;-40
2022/07/07 06:45:01;;;;;;;1.67;1.30;;;;;;;;;;4972716;28;20039;-39
2022/07/07 06:47:27;;;;;;;1.50;1.40;;;;;;;;;;4974459;28;20038;-41
2022/07/07 06:49:54;;;;;;;2.00;1.27;;;;;;;;;;4973974;28;20085;-40
2022/07/07 06:52:19;;;;;;;2.88;1.17;;;;;;;;;;4973755;28;20126;-40
2022/07/07 06:54:45;;;;;;;2.20;1.00;;;;;;;;;;4974264;28;20121;-41
2022/07/07 06:57:11;;;;;;;1.65;1.55;;;;;;;;;;4973844;28;20050;-41
2022/07/07 06:59:36;;;;;;;1.25;0.95;;;;;;;;;;4973896;28;20034;-41
2022/07/07 07:02:02;;;;;;;1.58;1.08;;;;;;;;;;4973702;28;20045;-41
2022/07/07 07:04:28;;;;;;;1.20;0.82;;;;;;;;;;4972659;28;20066;-40
2022/07/07 07:06:53;;;;;;;3.03;1.05;;;;;;;;;;4973938;28;20066;-40
2022/07/07 07:09:19;;;;;;;1.20;1.08;;;;;;;;;;4973965;28;20441;-40
2022/07/07 07:11:45;;;;;;;1.30;1.20;;;;;;;;;;4973703;28;20481;-41
2022/07/07 07:14:11;;;;;;;1.25;1.10;;;;;;;;;;4979468;28;20045;-40
2022/07/07 07:16:36;;;;;;;1.35;1.10;;;;;;;;;;4993210;28;20092;-40
2022/07/07 07:19:03;;;;;;;1.33;1.20;;;;;;;;;;4992872;28;20030;-39
2022/07/07 07:21:28;;;;;;;1.15;1.05;;;;;;;;;;4992915;28;20034;-40
2022/07/07 07:23:53;;;;;;;3.38;1.65;;;;;;;;;;4993137;28;20018;-40
2022/07/07 07:26:19;;;;;;;1.20;1.10;;;;;;;;;;4992866;28;20492;-40
2022/07/07 07:28:45;;;;;;;1.02;0.93;;;;;;;;;;4993098;28;20101;-39
2022/07/07 07:31:10;;;;;;;3.05;1.20;;;;;;;;;;4992707;28;20361;-40
2022/07/07 07:33:36;;;;;;;1.00;0.90;;;;;;;;;;4975296;28;20049;-41
2022/07/07 07:36:02;;;;;;;3.83;1.50;;;;;;;;;;4992539;28;20181;-40
2022/07/07 07:38:27;;;;;;;1.33;1.23;;;;;;;;;;4992666;28;20169;-41
2022/07/07 07:40:53;;;;;;;1.48;1.38;;;;;;;;;;4992406;28;20034;-40
2022/07/07 07:43:19;;;;;;;1.85;1.58;;;;;;;;;;4992580;28;20057;-40
2022/07/07 07:45:44;;;;;;;1.45;1.23;;;;;;;;;;4975228;28;20104;-40
2022/07/07 07:48:10;;;;;;;2.22;1.10;;;;;;;;;;4992341;28;20436;-40
2022/07/07 07:50:36;;;;;;;4.22;1.33;;;;;;;;;;4991890;28;20029;-40
2022/07/07 07:53:05;;;;;;;1.45;1.10;;;;;;;;;;4992329;28;20023;-42
2022/07/07 07:55:30;;;;;;;1.05;0.93;;;;;;;;;;4992329;28;20266;-40
2022/07/07 07:57:56;;;;;;;1.48;1.08;;;;;;;;;;4992237;28;20018;-40
2022/07/07 08:00:22;;;;;;;0.85;0.80;;;;;;;;;;4992335;28;20041;-41
2022/07/07 08:02:47;;;;;;;1.17;1.08;;;;;;;;;;4992097;28;20022;-43
2022/07/07 08:05:14;;;;;;;1.52;0.95;;;;;;;;;;4992528;28;20654;-40
2022/07/07 08:07:40;;;;;;;2.85;1.33;;;;;;;;;;4992247;28;20022;-41
2022/07/07 08:10:08;;;;;;;0.85;0.85;;;;;;;;;;4992018;28;20129;-41
2022/07/07 08:12:33;;;;;;;1.52;1.20;;;;;;;;;;4992174;28;20050;-43
2022/07/07 08:14:59;;;;;;;0.88;0.88;;;;;;;;;;4991878;28;20505;-41
2022/07/07 08:17:24;;;;;;;1.55;1.30;;;;;;;;;;4991904;28;20324;-40
2022/07/07 08:19:50;;;;;;;3.67;1.13;;;;;;;;;;4992043;28;20030;-40
2022/07/07 08:22:15;;;;;;;1.00;0.95;;;;;;;;;;4991938;28;20026;-40
2022/07/07 08:24:41;;;;;;;1.15;1.05;;;;;;;;;;4991972;28;20057;-40
2022/07/07 08:27:07;;;;;;;1.00;0.90;;;;;;;;;;4991950;28;20018;-40
2022/07/07 08:29:32;;;;;;;1.80;1.27;;;;;;;;;;4992001;28;20022;-40
2022/07/07 08:31:58;;;;;;;6.25;1.10;;;;;;;;;;4991786;28;20027;-40
2022/07/07 08:34:23;;;;;;;1.13;1.02;;;;;;;;;;4992215;28;20104;-41
2022/07/07 08:36:49;;;;;;;1.75;0.82;;;;;;;;;;4991818;28;20042;-41
2022/07/07 08:39:14;;;;;;;1.23;1.10;;;;;;;;;;4991886;28;20461;-40
2022/07/07 08:41:40;;;;;;;0.80;0.80;;;;;;;;;;4974345;28;20027;-41
2022/07/07 08:44:06;;;;;;;0.90;0.73;;;;;;;;;;4991769;28;20038;-40
2022/07/07 08:46:32;;;;;;;1.30;1.10;;;;;;;;;;4991763;28;20026;-40
2022/07/07 08:48:57;;;;;;;1.33;1.00;;;;;;;;;;4992086;28;20362;-41
2022/07/07 08:51:24;;;;;;;3.25;1.00;;;;;;;;;;4991762;28;20026;-39
2022/07/07 08:53:49;;;;;;;0.93;0.90;;;;;;;;;;4991647;28;20468;-40
2022/07/07 08:56:18;;;;;;;1.42;1.15;;;;;;;;;;4991639;28;20063;-40
2022/07/07 08:58:44;;;;;;;1.45;1.02;;;;;;;;;;4992019;28;20392;-40
2022/07/07 09:01:10;;;;;;;1.13;0.90;;;;;;;;;;4991618;28;20135;-40
2022/07/07 09:03:36;;;;;;;1.15;1.05;;;;;;;;;;4994090;28;20376;-40
2022/07/07 09:06:02;;;;;;;0.82;0.82;;;;;;;;;;4995401;28;20023;-40
2022/07/07 09:08:29;;;;;;;1.10;0.90;;;;;;;;;;4995671;28;20069;-40
2022/07/07 09:10:56;;;;;;;1.00;0.90;;;;;;;;;;4977826;28;20077;-39
2022/07/07 09:13:25;;;;;;;1.65;0.98;;;;;;;;;;4995872;28;20184;-41
2022/07/07 09:15:51;;;;;;;5.38;0.95;;;;;;;;;;4994989;28;20089;-40
2022/07/07 09:18:34;;;;;;;0.93;0.82;;;;;;;;;;4995511;28;20030;-41
2022/07/07 09:21:01;;;;;;;1.20;1.10;;;;;;;;;;4995108;28;20034;-40
2022/07/07 09:23:26;;;;;;;2.20;1.00;;;;;;;;;;4995216;28;20377;-40
2022/07/07 09:25:52;;;;;;;1.30;1.20;;;;;;;;;;4995284;28;20033;-41
2022/07/07 09:28:18;;;;;;;9.02;1.08;;;;;;;;;;4994968;28;20022;-40
2022/07/07 09:30:45;;;;;;;1.77;1.17;;;;;;;;;;4995221;28;20117;-40
2022/07/07 09:33:11;;;;;;;1.25;1.15;;;;;;;;;;4994951;28;20089;-41
2022/07/07 09:38:22;;;;;;;2.08;1.27;;;;;;;;;;4994963;28;20034;-40
2022/07/07 09:40:52;;;;;;;0.82;0.82;;;;;;;;;;4995087;28;20430;-41
2022/07/07 09:43:18;;;;;;;0.90;0.80;;;;;;;;;;4993542;28;20463;-40
2022/07/07 09:45:48;;;;;;;1.00;0.90;;;;;;;;;;4994724;28;20534;-40
2022/07/07 09:48:14;;;;;;;0.77;0.77;;;;;;;;;;4994638;28;20030;-41
2022/07/07 09:50:39;;;;;;;0.80;0.70;;;;;;;;;;4994414;28;20019;-40
2022/07/07 09:53:08;;;;;;;0.95;0.80;;;;;;;;;;4994505;28;20030;-40
2022/07/07 09:55:34;;;;;;;1.67;1.17;;;;;;;;;;4994468;28;20131;-40
2022/07/07 09:57:59;;;;;;;0.75;0.70;;;;;;;;;;4994456;28;20046;-41
2022/07/07 10:00:25;;;;;;;4.05;0.90;;;;;;;;;;4994439;28;20023;-40
2022/07/07 10:02:51;;;;;;;1.10;0.80;;;;;;;;;;4994585;28;20065;-41
2022/07/07 10:05:18;;;;;;;0.68;0.68;;;;;;;;;;4994314;28;20109;-40
2022/07/07 10:07:45;;;;;;;0.80;0.80;;;;;;;;;;4994408;28;20110;-40
2022/07/07 10:10:12;;;;;;;0.95;0.90;;;;;;;;;;4994235;28;20026;-41
2022/07/07 10:12:45;;;;;;;1.23;0.85;;;;;;;;;;4994211;28;20034;-41
2022/07/07 10:15:11;;;;;;;0.80;0.77;;;;;;;;;;4993411;28;20082;-40
2022/07/07 10:17:37;;;;;;;0.80;0.80;;;;;;;;;;4994104;28;20100;-40
2022/07/07 10:20:04;;;;;;;0.80;0.80;;;;;;;;;;4994051;28;20044;-40
2022/07/07 10:22:30;;;;;;;0.80;0.80;;;;;;;;;;4994300;28;20366;-41
2022/07/07 10:24:56;;;;;;;0.70;0.70;;;;;;;;;;4994140;28;20035;-40
2022/07/07 10:27:23;;;;;;;1.38;0.85;;;;;;;;;;4993933;28;20045;-41
2022/07/07 10:29:50;;;;;;;1.85;0.60;;;;;;;;;;4994016;28;20473;-40
2022/07/07 10:32:16;;;;;;;1.30;0.98;;;;;;;;;;4993817;28;20022;-40
2022/07/07 10:34:49;;;;;;;0.85;0.70;;;;;;;;;;4994008;28;20044;-40
2022/07/07 10:37:15;;;;;;;1.48;0.52;;;;;;;;;;4993714;28;20046;-40
2022/07/07 10:39:42;;;;;;;0.70;0.70;;;;;;;;;;4993659;28;20023;-40
2022/07/07 10:42:17;;;;;;;0.82;0.77;;;;;;;;;;4993622;28;20041;-40
2022/07/07 10:44:43;;;;;;;0.85;0.70;;;;;;;;;;4993638;28;20036;-40
2022/07/07 10:47:12;;;;;;;0.93;0.90;;;;;;;;;;4993696;28;20030;-40
2022/07/07 10:49:41;;;;;;;0.75;0.75;;;;;;;;;;4976068;28;20092;-40
2022/07/07 10:52:11;;;;;;;0.95;0.95;;;;;;;;;;4993298;28;20076;-40
2022/07/07 10:54:41;;;;;;;2.70;0.80;;;;;;;;;;4993411;28;20076;-41
2022/07/07 10:57:11;;;;;;;2.60;0.40;;;;;;;;;;4993615;28;20054;-40
2022/07/07 11:00:01;;;;;;;3.67;0.70;;;;;;;;;;4993662;28;20105;-40
2022/07/07 11:02:36;;;;;;;0.90;0.85;;;;;;;;;;4966520;28;20527;-40
2022/07/07 11:05:03;;;;;;;1.08;0.90;;;;;;;;;;4993437;28;20107;-41
2022/07/07 11:07:28;;;;;;;1.50;0.63;;;;;;;;;;4993455;28;20034;-41
2022/07/07 11:10:06;;;;;;;3.13;0.80;;;;;;;;;;4993136;28;20097;-40
2022/07/07 11:12:37;;;;;;;0.70;0.70;;;;;;;;;;4993439;28;20072;-40
2022/07/07 11:15:21;;;;;;;0.70;0.70;;;;;;;;;;4992707;28;20458;-41
2022/07/07 11:17:53;;;;;;;0.60;0.60;;;;;;;;;;4992924;28;20071;-40
2022/07/07 11:20:25;;;;;;;0.67;0.60;;;;;;;;;;4993201;28;20040;-40
2022/07/07 11:22:52;;;;;;;1.08;0.70;;;;;;;;;;4993100;28;20369;-40
2022/07/07 11:25:19;;;;;;;0.75;0.75;;;;;;;;;;4992149;28;20033;-40
2022/07/07 11:27:46;;;;;;;1.00;0.90;;;;;;;;;;4975488;28;20022;-40
2022/07/07 11:30:12;;;;;;;0.77;0.60;;;;;;;;;;4992625;28;20038;-40
2022/07/07 11:32:39;;;;;;;1.10;0.73;;;;;;;;;;4992736;28;20034;-41
2022/07/07 11:35:05;;;;;;;0.93;0.73;;;;;;;;;;4992681;28;20083;-44
2022/07/07 11:37:31;;;;;;;1.20;0.95;;;;;;;;;;4992599;28;20427;-41
2022/07/07 11:39:57;;;;;;;1.33;0.70;;;;;;;;;;4992512;28;20022;-39
2022/07/07 11:42:24;;;;;;;0.90;0.90;;;;;;;;;;4992560;28;20061;-40
2022/07/07 11:44:49;;;;;;;0.73;0.73;;;;;;;;;;4992587;28;20022;-40
2022/07/07 11:47:15;;;;;;;1.17;1.08;;;;;;;;;;4992516;28;20030;-41
2022/07/07 11:49:41;;;;;;;0.70;0.70;;;;;;;;;;4992552;28;20440;-41
2022/07/07 11:52:11;;;;;;;0.77;0.77;;;;;;;;;;4992591;28;20113;-40
2022/07/07 11:54:47;;;;;;;1.08;0.70;;;;;;;;;;4992673;28;20031;-41
2022/07/07 11:57:26;;;;;;;0.85;0.80;;;;;;;;;;4992257;28;20070;-41
2022/07/07 11:59:51;;;;;;;2.30;0.80;;;;;;;;;;4992282;28;20508;-41
2022/07/07 12:02:18;;;;;;;0.90;0.90;;;;;;;;;;4992535;28;20022;-40
2022/07/07 12:04:43;;;;;;;0.75;0.50;;;;;;;;;;4992260;28;20138;-40
2022/07/07 12:07:10;;;;;;;1.48;0.63;;;;;;;;;;4992140;28;20540;-40
2022/07/07 12:09:35;;;;;;;1.05;0.70;;;;;;;;;;4992191;28;20057;-40
2022/07/07 12:12:01;;;;;;;1.13;0.80;;;;;;;;;;4974631;28;20058;-41
2022/07/07 12:14:27;;;;;;;3.05;0.70;;;;;;;;;;4991936;28;20050;-41
2022/07/07 12:16:52;;;;;;;0.45;0.45;;;;;;;;;;4991964;28;20034;-42
2022/07/07 12:19:18;;;;;;;1.33;0.80;;;;;;;;;;4991978;28;20034;-40
2022/07/07 12:21:45;;;;;;;0.82;0.82;;;;;;;;;;4992036;28;20037;-40
2022/07/07 12:24:11;;;;;;;0.60;0.60;;;;;;;;;;4992032;28;20058;-40
2022/07/07 12:26:51;;;;;;;0.80;0.80;;;;;;;;;;4992067;28;20066;-40
2022/07/07 12:29:20;;;;;;;0.57;0.57;;;;;;;;;;4991883;28;20034;-40
2022/07/07 12:31:47;;;;;;;0.70;0.70;;;;;;;;;;4991912;28;20466;-41
2022/07/07 12:34:17;;;;;;;0.70;0.70;;;;;;;;;;4991873;28;20082;-41
2022/07/07 12:36:43;;;;;;;1.45;0.88;;;;;;;;;;4993165;28;20046;-41
2022/07/07 12:39:09;;;;;;;0.68;0.63;;;;;;;;;;4996136;28;20030;-41
2022/07/07 12:41:35;;;;;;;1.23;0.77;;;;;;;;;;4995855;28;20034;-41
2022/07/07 12:44:15;;;;;;;0.57;0.50;;;;;;;;;;4995841;28;20039;-40
2022/07/07 12:46:40;;;;;;;0.70;0.70;;;;;;;;;;4995779;28;20030;-41
2022/07/07 12:49:06;;;;;;;1.00;0.73;;;;;;;;;;4995976;28;20016;-40
2022/07/07 12:51:32;;;;;;;0.73;0.73;;;;;;;;;;4995730;28;20447;-40
2022/07/07 12:53:58;;;;;;;0.80;0.80;;;;;;;;;;4995879;28;20019;-40
2022/07/07 12:56:31;;;;;;;1.00;0.90;;;;;;;;;;4995852;28;20045;-40
2022/07/07 12:58:56;;;;;;;0.73;0.73;;;;;;;;;;4995547;28;20069;-40
2022/07/07 13:01:23;;;;;;;1.38;1.05;;;;;;;;;;4995737;28;20026;-40
2022/07/07 13:03:51;;;;;;;0.75;0.75;;;;;;;;;;4995812;28;20036;-40
2022/07/07 13:06:16;;;;;;;1.20;1.10;;;;;;;;;;4977934;28;20018;-40
2022/07/07 13:08:42;;;;;;;0.73;0.73;;;;;;;;;;4995385;28;20037;-40
2022/07/07 13:11:08;;;;;;;0.80;0.80;;;;;;;;;;4995347;28;20027;-40
2022/07/07 13:13:37;;;;;;;1.63;1.15;;;;;;;;;;4995143;28;20465;-40
2022/07/07 13:16:02;;;;;;;1.42;1.02;;;;;;;;;;4995535;28;20049;-40
2022/07/07 13:18:28;;;;;;;1.00;0.80;;;;;;;;;;4995316;28;20491;-41
2022/07/07 13:20:54;;;;;;;1.10;1.00;;;;;;;;;;4995133;28;20022;-41
2022/07/07 13:23:22;;;;;;;1.55;1.02;;;;;;;;;;4995156;28;20034;-40
2022/07/07 13:25:48;;;;;;;3.47;0.82;;;;;;;;;;4995169;28;20033;-40
2022/07/07 13:28:13;;;;;;;0.90;0.60;;;;;;;;;;4994909;28;20042;-40
2022/07/07 13:30:39;;;;;;;1.98;0.80;;;;;;;;;;4995251;28;20023;-40
2022/07/07 13:33:04;;;;;;;1.00;0.90;;;;;;;;;;4994852;28;20034;-41
2022/07/07 13:35:29;;;;;;;2.65;0.77;;;;;;;;;;4994968;28;20023;-41
2022/07/07 13:37:55;;;;;;;0.90;0.70;;;;;;;;;;4994812;28;20483;-41
2022/07/07 13:40:22;;;;;;;0.88;0.80;;;;;;;;;;4994891;28;20025;-41
2022/07/07 13:42:47;;;;;;;0.73;0.73;;;;;;;;;;4995142;28;20034;-40
2022/07/07 13:45:13;;;;;;;1.17;0.98;;;;;;;;;;4994887;28;20014;-40
2022/07/07 13:47:38;;;;;;;0.68;0.68;;;;;;;;;;4994627;28;20172;-40
2022/07/07 13:50:04;;;;;;;1.75;1.08;;;;;;;;;;4994159;28;20025;-41
2022/07/07 13:52:29;;;;;;;1.17;0.93;;;;;;;;;;4994893;28;20361;-40
2022/07/07 13:54:55;;;;;;;1.63;1.42;;;;;;;;;;4994823;28;20023;-41
2022/07/07 13:57:20;;;;;;;5.78;1.20;;;;;;;;;;4994552;28;20042;-40
2022/07/07 13:59:48;;;;;;;0.82;0.82;;;;;;;;;;4994470;28;20022;-40
2022/07/07 14:02:14;;;;;;;0.80;0.60;;;;;;;;;;4994406;28;20042;-40
2022/07/07 14:04:39;;;;;;;1.23;0.90;;;;;;;;;;4994414;28;20084;-40
2022/07/07 14:07:05;;;;;;;1.08;0.90;;;;;;;;;;4994196;28;20125;-41
2022/07/07 14:09:31;;;;;;;0.77;0.77;;;;;;;;;;4994382;28;20031;-40
2022/07/07 14:11:58;;;;;;;1.30;0.90;;;;;;;;;;4994154;28;20042;-40
2022/07/07 14:14:24;;;;;;;2.08;0.60;;;;;;;;;;4994023;28;20046;-40
2022/07/07 14:16:49;;;;;;;0.60;0.60;;;;;;;;;;4994454;28;20054;-41
2022/07/07 14:19:15;;;;;;;0.98;0.60;;;;;;;;;;4994041;28;20033;-40
2022/07/07 14:21:42;;;;;;;1.33;0.88;;;;;;;;;;4994007;28;20130;-40
2022/07/07 14:24:07;;;;;;;0.50;0.50;;;;;;;;;;4993960;28;20401;-40
2022/07/07 14:26:33;;;;;;;2.15;0.80;;;;;;;;;;4994244;28;20034;-40
2022/07/07 14:28:58;;;;;;;0.80;0.50;;;;;;;;;;4994177;28;20437;-41
2022/07/07 14:31:24;;;;;;;2.63;1.05;;;;;;;;;;4994156;28;20034;-40
2022/07/07 14:33:49;;;;;;;0.90;0.47;;;;;;;;;;4976359;28;20361;-40
2022/07/07 14:36:15;;;;;;;0.50;0.50;;;;;;;;;;4993717;28;20042;-41
2022/07/07 14:38:41;;;;;;;0.63;0.52;;;;;;;;;;4993811;28;20022;-40
2022/07/07 14:41:07;;;;;;;0.73;0.40;;;;;;;;;;4993878;28;20037;-40
2022/07/07 14:43:32;;;;;;;0.60;0.40;;;;;;;;;;4976212;28;20564;-41